sensor_id;sensor_type;location;lat;lon;timestamp;temperature;humidity
5796;DHT22;2924;51.458;7.046;2023-01-08T00:01:41;9.70;99.90
5796;DHT22;2924;51.458;7.046;2023-01-08T00:04:07;9.70;99.90
5796;DHT22;2924;51.458;7.046;2023-01-08T00:06:33;9.80;99.90
5796;DHT22;2924;51.458;7.046;2023-01-08T00:08:58;9.80;99.90
5796;DHT22;2924;51.458;7.046;2023-01-08T00:11:24;9.80;99.90
5796;DHT22;2924;51.458;7.046;2023-01-08T00:13:50;9.80;99.90
5796;DHT22;2924;51.458;7.046;2023-01-08T00:16:16;9.80;99.90
5796;DHT22;2924;51.458;7.046;2023-01-08T00:18:44;9.80;99.90
5796;DHT22;2924;51.458;7.046;2023-01-08T00:21:10;9.80;99.90
5796;DHT22;2924;51.458;7.046;2023-01-08T00:23:36;9.90;99.90
5796;DHT22;2924;51.458;7.046;2023-01-08T00:26:04;9.80;99.90
5796;DHT22;2924;51.458;7.046;2023-01-08T00:28:30;9.90;99.90
5796;DHT22;2924;51.458;7.046;2023-01-08T00:30:56;9.90;99.90
5796;DHT22;2924;51.458;7.046;2023-01-08T00:33:21;9.80;99.90
5796;DHT22;2924;51.458;7.046;2023-01-08T00:35:47;9.80;99.90
5796;DHT22;2924;51.458;7.046;2023-01-08T00:38:13;9.80;99.90
5796;DHT22;2924;51.458;7.046;2023-01-08T00:40:38;9.80;99.90
5796;DHT22;2924;51.458;7.046;2023-01-08T00:43:07;9.80;99.90
5796;DHT22;2924;51.458;7.046;2023-01-08T00:45:33;9.80;99.90
5796;DHT22;2924;51.458;7.046;2023-01-08T00:47:59;9.80;99.90
5796;DHT22;2924;51.458;7.046;2023-01-08T00:50:25;9.80;99.90
5796;DHT22;2924;51.458;7.046;2023-01-08T00:52:50;9.80;99.90
5796;DHT22;2924;51.458;7.046;2023-01-08T00:55:17;9.80;99.90
5796;DHT22;2924;51.458;7.046;2023-01-08T00:57:42;9.80;99.90
5796;DHT22;2924;51.458;7.046;2023-01-08T01:00:11;9.80;99.90
5796;DHT22;2924;51.458;7.046;2023-01-08T01:02:39;9.80;99.90
5796;DHT22;2924;51.458;7.046;2023-01-08T01:05:06;9.80;99.90
5796;DHT22;2924;51.458;7.046;2023-01-08T01:07:33;9.80;99.90
5796;DHT22;2924;51.458;7.046;2023-01-08T01:09:59;9.90;99.90
5796;DHT22;2924;51.458;7.046;2023-01-08T01:12:25;9.80;99.90
5796;DHT22;2924;51.458;7.046;2023-01-08T01:14:50;9.90;99.90
5796;DHT22;2924;51.458;7.046;2023-01-08T01:17:16;9.90;99.90
5796;DHT22;2924;51.458;7.046;2023-01-08T01:19:42;9.90;99.90
5796;DHT22;2924;51.458;7.046;2023-01-08T01:22:07;9.80;99.90
5796;DHT22;2924;51.458;7.046;2023-01-08T01:24:33;9.90;99.90
5796;DHT22;2924;51.458;7.046;2023-01-08T01:26:59;9.80;99.90
5796;DHT22;2924;51.458;7.046;2023-01-08T01:29:25;9.90;99.90
5796;DHT22;2924;51.458;7.046;2023-01-08T01:31:50;9.90;99.90
5796;DHT22;2924;51.458;7.046;2023-01-08T01:34:16;9.90;99.90
5796;DHT22;2924;51.458;7.046;2023-01-08T01:36:42;9.80;99.90
5796;DHT22;2924;51.458;7.046;2023-01-08T01:39:08;9.80;99.90
5796;DHT22;2924;51.458;7.046;2023-01-08T01:41:45;9.80;99.90
5796;DHT22;2924;51.458;7.046;2023-01-08T01:47:29;9.80;99.90
5796;DHT22;2924;51.458;7.046;2023-01-08T01:52:41;9.80;99.90
5796;DHT22;2924;51.458;7.046;2023-01-08T01:55:09;9.80;99.90
5796;DHT22;2924;51.458;7.046;2023-01-08T01:57:36;9.80;99.90
5796;DHT22;2924;51.458;7.046;2023-01-08T02:00:05;9.80;99.90
5796;DHT22;2924;51.458;7.046;2023-01-08T02:02:31;9.80;99.90
5796;DHT22;2924;51.458;7.046;2023-01-08T02:04:58;9.80;99.90
5796;DHT22;2924;51.458;7.046;2023-01-08T02:10:20;9.70;99.90
5796;DHT22;2924;51.458;7.046;2023-01-08T02:12:57;9.60;99.90
5796;DHT22;2924;51.458;7.046;2023-01-08T02:16:04;9.60;99.90
5796;DHT22;2924;51.458;7.046;2023-01-08T02:18:49;9.60;99.90
5796;DHT22;2924;51.458;7.046;2023-01-08T02:24:29;9.60;99.90
5796;DHT22;2924;51.458;7.046;2023-01-08T02:27:00;9.50;99.90
5796;DHT22;2924;51.458;7.046;2023-01-08T02:29:29;9.50;99.90
5796;DHT22;2924;51.458;7.046;2023-01-08T02:31:57;9.50;99.90
5796;DHT22;2924;51.458;7.046;2023-01-08T02:34:22;9.50;99.90
5796;DHT22;2924;51.458;7.046;2023-01-08T02:36:53;9.50;99.90
5796;DHT22;2924;51.458;7.046;2023-01-08T02:47:41;9.60;99.90
5796;DHT22;2924;51.458;7.046;2023-01-08T02:50:29;9.60;99.90
5796;DHT22;2924;51.458;7.046;2023-01-08T02:53:08;9.60;99.90
5796;DHT22;2924;51.458;7.046;2023-01-08T02:55:37;9.60;99.90
5796;DHT22;2924;51.458;7.046;2023-01-08T02:58:05;9.50;99.90
5796;DHT22;2924;51.458;7.046;2023-01-08T03:00:31;9.50;99.90
5796;DHT22;2924;51.458;7.046;2023-01-08T03:03:06;9.50;99.90
5796;DHT22;2924;51.458;7.046;2023-01-08T03:05:33;9.50;99.90
5796;DHT22;2924;51.458;7.046;2023-01-08T03:07:59;9.50;99.90
5796;DHT22;2924;51.458;7.046;2023-01-08T03:10:28;9.50;99.90
5796;DHT22;2924;51.458;7.046;2023-01-08T03:15:58;9.50;99.90
5796;DHT22;2924;51.458;7.046;2023-01-08T03:18:30;9.40;99.90
5796;DHT22;2924;51.458;7.046;2023-01-08T03:21:00;9.50;99.90
5796;DHT22;2924;51.458;7.046;2023-01-08T03:23:28;9.40;99.90
5796;DHT22;2924;51.458;7.046;2023-01-08T03:25:58;9.40;99.90
5796;DHT22;2924;51.458;7.046;2023-01-08T03:28:30;9.50;99.90
5796;DHT22;2924;51.458;7.046;2023-01-08T03:30:58;9.40;99.90
5796;DHT22;2924;51.458;7.046;2023-01-08T03:33:27;9.50;99.90
5796;DHT22;2924;51.458;7.046;2023-01-08T03:35:56;9.50;99.90
5796;DHT22;2924;51.458;7.046;2023-01-08T03:38:32;9.40;99.90
5796;DHT22;2924;51.458;7.046;2023-01-08T03:41:03;9.50;99.90
5796;DHT22;2924;51.458;7.046;2023-01-08T03:43:30;9.50;99.90
5796;DHT22;2924;51.458;7.046;2023-01-08T03:45:57;9.50;99.90
5796;DHT22;2924;51.458;7.046;2023-01-08T03:48:24;9.50;99.90
5796;DHT22;2924;51.458;7.046;2023-01-08T03:50:51;9.50;99.90
5796;DHT22;2924;51.458;7.046;2023-01-08T03:53:17;9.50;99.90
5796;DHT22;2924;51.458;7.046;2023-01-08T03:55:43;9.40;99.90
5796;DHT22;2924;51.458;7.046;2023-01-08T03:58:08;9.40;99.90
5796;DHT22;2924;51.458;7.046;2023-01-08T04:00:34;9.40;99.90
5796;DHT22;2924;51.458;7.046;2023-01-08T04:03:00;9.50;99.90
5796;DHT22;2924;51.458;7.046;2023-01-08T04:05:25;9.50;99.90
5796;DHT22;2924;51.458;7.046;2023-01-08T04:07:54;9.50;99.90
5796;DHT22;2924;51.458;7.046;2023-01-08T04:10:20;9.40;99.90
5796;DHT22;2924;51.458;7.046;2023-01-08T04:12:45;9.40;99.90
5796;DHT22;2924;51.458;7.046;2023-01-08T04:15:11;9.40;99.90
5796;DHT22;2924;51.458;7.046;2023-01-08T04:17:37;9.40;99.90
5796;DHT22;2924;51.458;7.046;2023-01-08T04:20:03;9.40;99.90
5796;DHT22;2924;51.458;7.046;2023-01-08T04:22:29;9.40;99.90
5796;DHT22;2924;51.458;7.046;2023-01-08T04:24:54;9.50;99.90
5796;DHT22;2924;51.458;7.046;2023-01-08T04:27:20;9.50;99.90
5796;DHT22;2924;51.458;7.046;2023-01-08T04:29:45;9.50;99.90
5796;DHT22;2924;51.458;7.046;2023-01-08T04:32:11;9.60;99.90
5796;DHT22;2924;51.458;7.046;2023-01-08T04:34:37;9.60;99.90
5796;DHT22;2924;51.458;7.046;2023-01-08T04:37:02;9.70;99.90
5796;DHT22;2924;51.458;7.046;2023-01-08T04:39:28;9.70;99.90
5796;DHT22;2924;51.458;7.046;2023-01-08T04:41:54;9.60;99.90
5796;DHT22;2924;51.458;7.046;2023-01-08T04:44:19;9.60;99.90
5796;DHT22;2924;51.458;7.046;2023-01-08T04:46:45;9.50;99.90
5796;DHT22;2924;51.458;7.046;2023-01-08T04:49:11;9.50;99.90
5796;DHT22;2924;51.458;7.046;2023-01-08T04:51:37;9.50;99.90
5796;DHT22;2924;51.458;7.046;2023-01-08T04:54:02;9.40;99.90
5796;DHT22;2924;51.458;7.046;2023-01-08T04:56:28;9.40;99.90
5796;DHT22;2924;51.458;7.046;2023-01-08T04:58:56;9.40;99.90
5796;DHT22;2924;51.458;7.046;2023-01-08T05:01:23;9.40;99.90
5796;DHT22;2924;51.458;7.046;2023-01-08T05:03:59;9.30;99.90
5796;DHT22;2924;51.458;7.046;2023-01-08T05:06:25;9.20;99.90
5796;DHT22;2924;51.458;7.046;2023-01-08T05:08:52;9.30;99.90
5796;DHT22;2924;51.458;7.046;2023-01-08T05:11:18;9.30;99.90
5796;DHT22;2924;51.458;7.046;2023-01-08T05:13:47;9.20;99.90
5796;DHT22;2924;51.458;7.046;2023-01-08T05:16:13;9.20;99.90
5796;DHT22;2924;51.458;7.046;2023-01-08T05:18:39;9.30;99.90
5796;DHT22;2924;51.458;7.046;2023-01-08T05:21:05;9.30;99.90
5796;DHT22;2924;51.458;7.046;2023-01-08T05:23:31;9.30;99.90
5796;DHT22;2924;51.458;7.046;2023-01-08T05:26:02;9.30;99.90
5796;DHT22;2924;51.458;7.046;2023-01-08T05:28:28;9.30;99.90
5796;DHT22;2924;51.458;7.046;2023-01-08T05:30:54;9.40;99.90
5796;DHT22;2924;51.458;7.046;2023-01-08T05:33:20;9.40;99.90
5796;DHT22;2924;51.458;7.046;2023-01-08T05:35:46;9.40;99.90
5796;DHT22;2924;51.458;7.046;2023-01-08T05:38:12;9.40;99.90
5796;DHT22;2924;51.458;7.046;2023-01-08T05:40:37;9.40;99.90
5796;DHT22;2924;51.458;7.046;2023-01-08T05:43:03;9.40;99.90
5796;DHT22;2924;51.458;7.046;2023-01-08T05:45:30;9.40;99.90
5796;DHT22;2924;51.458;7.046;2023-01-08T05:47:56;9.50;99.90
5796;DHT22;2924;51.458;7.046;2023-01-08T05:50:22;9.50;99.90
5796;DHT22;2924;51.458;7.046;2023-01-08T05:52:47;9.50;99.90
5796;DHT22;2924;51.458;7.046;2023-01-08T05:55:13;9.50;99.90
5796;DHT22;2924;51.458;7.046;2023-01-08T05:57:38;9.50;99.90
5796;DHT22;2924;51.458;7.046;2023-01-08T06:00:05;9.50;99.90
5796;DHT22;2924;51.458;7.046;2023-01-08T06:02:32;9.40;99.90
5796;DHT22;2924;51.458;7.046;2023-01-08T06:04:58;9.40;99.90
5796;DHT22;2924;51.458;7.046;2023-01-08T06:07:24;9.30;99.90
5796;DHT22;2924;51.458;7.046;2023-01-08T06:09:49;9.40;99.90
5796;DHT22;2924;51.458;7.046;2023-01-08T06:12:15;9.40;99.90
5796;DHT22;2924;51.458;7.046;2023-01-08T06:14:41;9.40;99.90
5796;DHT22;2924;51.458;7.046;2023-01-08T06:17:06;9.40;99.90
5796;DHT22;2924;51.458;7.046;2023-01-08T06:19:32;9.40;99.90
5796;DHT22;2924;51.458;7.046;2023-01-08T06:21:58;9.30;99.90
5796;DHT22;2924;51.458;7.046;2023-01-08T06:24:23;9.30;99.90
5796;DHT22;2924;51.458;7.046;2023-01-08T06:26:49;9.40;99.90
5796;DHT22;2924;51.458;7.046;2023-01-08T06:29:15;9.40;99.90
5796;DHT22;2924;51.458;7.046;2023-01-08T06:31:40;9.40;99.90
5796;DHT22;2924;51.458;7.046;2023-01-08T06:34:07;9.40;99.90
5796;DHT22;2924;51.458;7.046;2023-01-08T06:36:33;9.40;99.90
5796;DHT22;2924;51.458;7.046;2023-01-08T06:38:58;9.50;99.90
5796;DHT22;2924;51.458;7.046;2023-01-08T06:41:24;9.40;99.90
5796;DHT22;2924;51.458;7.046;2023-01-08T06:43:50;9.40;99.90
5796;DHT22;2924;51.458;7.046;2023-01-08T06:46:15;9.40;99.90
5796;DHT22;2924;51.458;7.046;2023-01-08T06:48:41;9.40;99.90
5796;DHT22;2924;51.458;7.046;2023-01-08T06:51:06;9.40;99.90
5796;DHT22;2924;51.458;7.046;2023-01-08T06:53:32;9.40;99.90
5796;DHT22;2924;51.458;7.046;2023-01-08T06:55:58;9.40;99.90
5796;DHT22;2924;51.458;7.046;2023-01-08T06:58:25;9.30;99.90
5796;DHT22;2924;51.458;7.046;2023-01-08T07:00:51;9.30;99.90
5796;DHT22;2924;51.458;7.046;2023-01-08T07:03:17;9.20;99.90
5796;DHT22;2924;51.458;7.046;2023-01-08T07:05:42;9.00;99.90
5796;DHT22;2924;51.458;7.046;2023-01-08T07:08:13;8.70;99.90
5796;DHT22;2924;51.458;7.046;2023-01-08T07:10:39;8.50;99.90
5796;DHT22;2924;51.458;7.046;2023-01-08T07:13:05;8.30;99.90
5796;DHT22;2924;51.458;7.046;2023-01-08T07:15:43;8.10;99.90
5796;DHT22;2924;51.458;7.046;2023-01-08T07:18:10;7.90;99.90
5796;DHT22;2924;51.458;7.046;2023-01-08T07:20:37;7.80;99.90
5796;DHT22;2924;51.458;7.046;2023-01-08T07:23:04;7.70;99.90
5796;DHT22;2924;51.458;7.046;2023-01-08T07:25:30;7.60;99.90
5796;DHT22;2924;51.458;7.046;2023-01-08T07:27:56;7.60;99.90
5796;DHT22;2924;51.458;7.046;2023-01-08T07:30:23;7.50;99.90
5796;DHT22;2924;51.458;7.046;2023-01-08T07:32:49;7.50;99.90
5796;DHT22;2924;51.458;7.046;2023-01-08T07:35:14;7.50;99.90
5796;DHT22;2924;51.458;7.046;2023-01-08T07:37:41;7.50;99.90
5796;DHT22;2924;51.458;7.046;2023-01-08T07:40:08;7.40;99.90
5796;DHT22;2924;51.458;7.046;2023-01-08T07:42:34;7.40;99.90
5796;DHT22;2924;51.458;7.046;2023-01-08T07:44:59;7.30;99.90
5796;DHT22;2924;51.458;7.046;2023-01-08T07:47:25;7.30;99.90
5796;DHT22;2924;51.458;7.046;2023-01-08T07:49:51;7.30;99.90
5796;DHT22;2924;51.458;7.046;2023-01-08T07:52:16;7.20;99.90
5796;DHT22;2924;51.458;7.046;2023-01-08T07:54:42;7.20;99.90
5796;DHT22;2924;51.458;7.046;2023-01-08T07:57:07;7.30;99.90
5796;DHT22;2924;51.458;7.046;2023-01-08T07:59:33;7.20;99.90
5796;DHT22;2924;51.458;7.046;2023-01-08T08:01:59;7.20;99.90
5796;DHT22;2924;51.458;7.046;2023-01-08T08:04:24;7.30;99.90
5796;DHT22;2924;51.458;7.046;2023-01-08T08:06:50;7.20;99.90
5796;DHT22;2924;51.458;7.046;2023-01-08T08:09:16;7.20;99.90
5796;DHT22;2924;51.458;7.046;2023-01-08T08:11:41;7.10;99.90
5796;DHT22;2924;51.458;7.046;2023-01-08T08:14:07;7.10;99.90
5796;DHT22;2924;51.458;7.046;2023-01-08T08:16:33;7.10;99.90
5796;DHT22;2924;51.458;7.046;2023-01-08T08:18:59;7.10;99.90
5796;DHT22;2924;51.458;7.046;2023-01-08T08:21:24;7.10;99.90
5796;DHT22;2924;51.458;7.046;2023-01-08T08:23:50;7.00;99.90
5796;DHT22;2924;51.458;7.046;2023-01-08T08:26:16;7.00;99.90
5796;DHT22;2924;51.458;7.046;2023-01-08T08:28:42;7.10;99.90
5796;DHT22;2924;51.458;7.046;2023-01-08T08:31:08;7.00;99.90
5796;DHT22;2924;51.458;7.046;2023-01-08T08:33:33;6.90;99.90
5796;DHT22;2924;51.458;7.046;2023-01-08T08:35:59;6.90;99.90
5796;DHT22;2924;51.458;7.046;2023-01-08T08:38:25;6.90;99.90
5796;DHT22;2924;51.458;7.046;2023-01-08T08:40:51;6.80;99.90
5796;DHT22;2924;51.458;7.046;2023-01-08T08:43:17;6.80;99.90
5796;DHT22;2924;51.458;7.046;2023-01-08T08:45:43;6.80;99.90
5796;DHT22;2924;51.458;7.046;2023-01-08T08:48:09;6.80;99.90
5796;DHT22;2924;51.458;7.046;2023-01-08T08:50:36;6.80;99.90
5796;DHT22;2924;51.458;7.046;2023-01-08T08:53:03;6.80;99.90
5796;DHT22;2924;51.458;7.046;2023-01-08T08:55:30;6.90;99.90
5796;DHT22;2924;51.458;7.046;2023-01-08T08:58:02;7.00;99.90
5796;DHT22;2924;51.458;7.046;2023-01-08T09:00:28;7.10;99.90
5796;DHT22;2924;51.458;7.046;2023-01-08T09:02:54;7.20;99.90
5796;DHT22;2924;51.458;7.046;2023-01-08T09:05:20;7.30;99.90
5796;DHT22;2924;51.458;7.046;2023-01-08T09:07:45;7.40;99.90
5796;DHT22;2924;51.458;7.046;2023-01-08T09:10:11;7.50;99.90
5796;DHT22;2924;51.458;7.046;2023-01-08T09:12:36;7.70;99.90
5796;DHT22;2924;51.458;7.046;2023-01-08T09:15:02;7.90;99.90
5796;DHT22;2924;51.458;7.046;2023-01-08T09:17:28;8.20;99.90
5796;DHT22;2924;51.458;7.046;2023-01-08T09:19:54;8.40;99.90
5796;DHT22;2924;51.458;7.046;2023-01-08T09:22:19;8.70;99.90
5796;DHT22;2924;51.458;7.046;2023-01-08T09:24:45;9.00;99.90
5796;DHT22;2924;51.458;7.046;2023-01-08T09:27:11;9.10;99.90
5796;DHT22;2924;51.458;7.046;2023-01-08T09:29:37;9.20;99.90
5796;DHT22;2924;51.458;7.046;2023-01-08T09:32:05;9.20;99.90
5796;DHT22;2924;51.458;7.046;2023-01-08T09:34:31;9.20;99.90
5796;DHT22;2924;51.458;7.046;2023-01-08T09:36:57;9.30;99.90
5796;DHT22;2924;51.458;7.046;2023-01-08T09:39:23;9.30;99.90
5796;DHT22;2924;51.458;7.046;2023-01-08T09:41:49;9.30;99.90
5796;DHT22;2924;51.458;7.046;2023-01-08T09:44:23;9.50;99.90
5796;DHT22;2924;51.458;7.046;2023-01-08T09:46:53;9.80;99.90
5796;DHT22;2924;51.458;7.046;2023-01-08T09:49:39;9.80;99.90
5796;DHT22;2924;51.458;7.046;2023-01-08T09:52:05;10.00;99.90
5796;DHT22;2924;51.458;7.046;2023-01-08T09:54:31;10.00;99.90
5796;DHT22;2924;51.458;7.046;2023-01-08T09:56:58;10.10;99.90
5796;DHT22;2924;51.458;7.046;2023-01-08T09:59:24;10.30;99.90
5796;DHT22;2924;51.458;7.046;2023-01-08T10:01:51;10.50;99.90
5796;DHT22;2924;51.458;7.046;2023-01-08T10:04:25;10.60;99.90
5796;DHT22;2924;51.458;7.046;2023-01-08T10:07:11;10.60;99.90
5796;DHT22;2924;51.458;7.046;2023-01-08T10:09:40;10.50;99.90
5796;DHT22;2924;51.458;7.046;2023-01-08T10:12:06;10.20;99.90
5796;DHT22;2924;51.458;7.046;2023-01-08T10:14:37;10.00;99.90
5796;DHT22;2924;51.458;7.046;2023-01-08T10:19:44;10.10;99.90
5796;DHT22;2924;51.458;7.046;2023-01-08T10:22:16;10.40;99.90
5796;DHT22;2924;51.458;7.046;2023-01-08T10:24:43;10.70;99.90
5796;DHT22;2924;51.458;7.046;2023-01-08T10:27:17;11.10;99.90
5796;DHT22;2924;51.458;7.046;2023-01-08T10:29:44;11.30;99.90
5796;DHT22;2924;51.458;7.046;2023-01-08T10:32:18;11.10;99.90
5796;DHT22;2924;51.458;7.046;2023-01-08T10:34:51;10.70;99.90
5796;DHT22;2924;51.458;7.046;2023-01-08T10:37:37;10.50;99.90
5796;DHT22;2924;51.458;7.046;2023-01-08T10:43:05;10.80;99.90
5796;DHT22;2924;51.458;7.046;2023-01-08T10:45:32;11.10;99.90
5796;DHT22;2924;51.458;7.046;2023-01-08T10:48:00;11.40;99.90
5796;DHT22;2924;51.458;7.046;2023-01-08T10:50:31;11.50;99.90
5796;DHT22;2924;51.458;7.046;2023-01-08T10:53:03;11.60;99.90
5796;DHT22;2924;51.458;7.046;2023-01-08T10:55:34;11.50;99.90
5796;DHT22;2924;51.458;7.046;2023-01-08T11:00:36;11.40;99.90
5796;DHT22;2924;51.458;7.046;2023-01-08T11:03:05;11.60;99.90
5796;DHT22;2924;51.458;7.046;2023-01-08T11:05:35;11.70;99.90
5796;DHT22;2924;51.458;7.046;2023-01-08T11:08:05;11.60;99.90
5796;DHT22;2924;51.458;7.046;2023-01-08T11:10:33;11.80;99.90
5796;DHT22;2924;51.458;7.046;2023-01-08T11:13:03;11.80;99.90
5796;DHT22;2924;51.458;7.046;2023-01-08T11:15:36;11.50;99.90
5796;DHT22;2924;51.458;7.046;2023-01-08T11:18:22;11.10;99.90
5796;DHT22;2924;51.458;7.046;2023-01-08T11:20:50;10.90;99.90
5796;DHT22;2924;51.458;7.046;2023-01-08T11:23:22;10.70;99.90
5796;DHT22;2924;51.458;7.046;2023-01-08T11:34:36;11.00;99.90
5796;DHT22;2924;51.458;7.046;2023-01-08T11:37:18;11.00;99.90
5796;DHT22;2924;51.458;7.046;2023-01-08T11:39:44;11.00;99.90
5796;DHT22;2924;51.458;7.046;2023-01-08T11:42:22;11.00;99.90
5796;DHT22;2924;51.458;7.046;2023-01-08T11:45:10;10.90;99.90
5796;DHT22;2924;51.458;7.046;2023-01-08T12:00:07;10.80;99.90
5796;DHT22;2924;51.458;7.046;2023-01-08T12:05:21;11.00;99.90
5796;DHT22;2924;51.458;7.046;2023-01-08T12:33:39;9.80;99.90
5796;DHT22;2924;51.458;7.046;2023-01-08T12:36:09;8.70;99.90
5796;DHT22;2924;51.458;7.046;2023-01-08T12:38:42;7.70;99.90
5796;DHT22;2924;51.458;7.046;2023-01-08T12:41:11;7.10;99.90
5796;DHT22;2924;51.458;7.046;2023-01-08T12:43:53;6.90;99.90
5796;DHT22;2924;51.458;7.046;2023-01-08T12:46:21;6.80;99.90
5796;DHT22;2924;51.458;7.046;2023-01-08T12:48:49;6.90;99.90
5796;DHT22;2924;51.458;7.046;2023-01-08T12:51:23;7.10;99.90
5796;DHT22;2924;51.458;7.046;2023-01-08T13:04:15;7.70;99.90
5796;DHT22;2924;51.458;7.046;2023-01-08T13:07:01;8.10;99.90
5796;DHT22;2924;51.458;7.046;2023-01-08T13:09:27;8.50;99.90
5796;DHT22;2924;51.458;7.046;2023-01-08T13:11:55;8.90;99.90
5796;DHT22;2924;51.458;7.046;2023-01-08T13:14:22;9.10;99.90
5796;DHT22;2924;51.458;7.046;2023-01-08T13:17:01;9.20;99.90
5796;DHT22;2924;51.458;7.046;2023-01-08T13:19:31;9.50;99.90
5796;DHT22;2924;51.458;7.046;2023-01-08T13:21:59;9.70;99.90
5796;DHT22;2924;51.458;7.046;2023-01-08T13:24:31;9.80;99.90
5796;DHT22;2924;51.458;7.046;2023-01-08T13:37:40;10.10;99.90
5796;DHT22;2924;51.458;7.046;2023-01-08T13:43:03;10.20;99.90
5796;DHT22;2924;51.458;7.046;2023-01-08T13:45:33;10.20;99.90
5796;DHT22;2924;51.458;7.046;2023-01-08T13:47:59;10.30;99.90
5796;DHT22;2924;51.458;7.046;2023-01-08T13:50:26;10.30;99.90
5796;DHT22;2924;51.458;7.046;2023-01-08T13:53:02;10.40;99.90
5796;DHT22;2924;51.458;7.046;2023-01-08T13:58:00;10.30;99.90
5796;DHT22;2924;51.458;7.046;2023-01-08T14:00:37;10.40;99.90
5796;DHT22;2924;51.458;7.046;2023-01-08T14:03:46;10.40;99.90
5796;DHT22;2924;51.458;7.046;2023-01-08T14:06:16;10.20;99.90
5796;DHT22;2924;51.458;7.046;2023-01-08T14:09:02;10.00;99.90
5796;DHT22;2924;51.458;7.046;2023-01-08T14:11:29;9.70;99.90
5796;DHT22;2924;51.458;7.046;2023-01-08T14:13:55;9.60;99.90
5796;DHT22;2924;51.458;7.046;2023-01-08T14:16:22;9.40;99.90
5796;DHT22;2924;51.458;7.046;2023-01-08T14:18:49;9.40;99.90
5796;DHT22;2924;51.458;7.046;2023-01-08T14:21:20;9.40;99.90
5796;DHT22;2924;51.458;7.046;2023-01-08T14:23:47;9.40;99.90
5796;DHT22;2924;51.458;7.046;2023-01-08T14:26:49;9.40;99.90
5796;DHT22;2924;51.458;7.046;2023-01-08T14:29:15;9.50;99.90
5796;DHT22;2924;51.458;7.046;2023-01-08T14:31:48;9.50;99.90
5796;DHT22;2924;51.458;7.046;2023-01-08T14:34:14;9.50;99.90
5796;DHT22;2924;51.458;7.046;2023-01-08T14:36:41;9.50;99.90
5796;DHT22;2924;51.458;7.046;2023-01-08T14:42:00;9.40;99.90
5796;DHT22;2924;51.458;7.046;2023-01-08T14:44:44;9.40;99.90
5796;DHT22;2924;51.458;7.046;2023-01-08T14:47:17;9.40;99.90
5796;DHT22;2924;51.458;7.046;2023-01-08T14:49:49;9.30;99.90
5796;DHT22;2924;51.458;7.046;2023-01-08T14:52:16;9.30;99.90
5796;DHT22;2924;51.458;7.046;2023-01-08T14:54:46;9.30;99.90
5796;DHT22;2924;51.458;7.046;2023-01-08T14:57:13;9.30;99.90
5796;DHT22;2924;51.458;7.046;2023-01-08T14:59:40;9.30;99.90
5796;DHT22;2924;51.458;7.046;2023-01-08T15:02:20;9.30;99.90
5796;DHT22;2924;51.458;7.046;2023-01-08T15:04:46;9.30;99.90
5796;DHT22;2924;51.458;7.046;2023-01-08T15:07:19;9.30;99.90
5796;DHT22;2924;51.458;7.046;2023-01-08T15:09:57;9.10;99.90
5796;DHT22;2924;51.458;7.046;2023-01-08T15:12:26;9.10;99.90
5796;DHT22;2924;51.458;7.046;2023-01-08T15:14:52;9.00;99.90
5796;DHT22;2924;51.458;7.046;2023-01-08T15:17:21;9.00;99.90
5796;DHT22;2924;51.458;7.046;2023-01-08T15:19:51;8.90;99.90
5796;DHT22;2924;51.458;7.046;2023-01-08T15:22:19;8.80;99.90
5796;DHT22;2924;51.458;7.046;2023-01-08T15:24:58;8.80;99.90
5796;DHT22;2924;51.458;7.046;2023-01-08T15:27:24;8.80;99.90
5796;DHT22;2924;51.458;7.046;2023-01-08T15:29:52;8.80;99.90
5796;DHT22;2924;51.458;7.046;2023-01-08T15:32:27;8.70;99.90
5796;DHT22;2924;51.458;7.046;2023-01-08T15:34:54;8.80;99.90
5796;DHT22;2924;51.458;7.046;2023-01-08T15:37:20;8.70;99.90
5796;DHT22;2924;51.458;7.046;2023-01-08T15:39:45;8.80;99.90
5796;DHT22;2924;51.458;7.046;2023-01-08T15:45:02;8.80;99.90
5796;DHT22;2924;51.458;7.046;2023-01-08T15:47:28;8.80;99.90
5796;DHT22;2924;51.458;7.046;2023-01-08T15:49:53;8.80;99.90
5796;DHT22;2924;51.458;7.046;2023-01-08T15:52:24;8.80;99.90
5796;DHT22;2924;51.458;7.046;2023-01-08T15:54:56;8.80;99.90
5796;DHT22;2924;51.458;7.046;2023-01-08T15:57:21;8.80;99.90
5796;DHT22;2924;51.458;7.046;2023-01-08T15:59:47;8.80;99.90
5796;DHT22;2924;51.458;7.046;2023-01-08T16:02:13;8.80;99.90
5796;DHT22;2924;51.458;7.046;2023-01-08T16:04:40;8.90;99.90
5796;DHT22;2924;51.458;7.046;2023-01-08T16:07:06;8.80;99.90
5796;DHT22;2924;51.458;7.046;2023-01-08T16:09:32;8.90;99.90
5796;DHT22;2924;51.458;7.046;2023-01-08T16:11:57;8.90;99.90
5796;DHT22;2924;51.458;7.046;2023-01-08T16:14:23;8.70;99.90
5796;DHT22;2924;51.458;7.046;2023-01-08T16:16:49;8.70;99.90
5796;DHT22;2924;51.458;7.046;2023-01-08T16:19:14;8.70;99.90
5796;DHT22;2924;51.458;7.046;2023-01-08T16:21:40;8.70;99.90
5796;DHT22;2924;51.458;7.046;2023-01-08T16:24:12;8.80;99.90
5796;DHT22;2924;51.458;7.046;2023-01-08T16:26:38;8.90;99.90
5796;DHT22;2924;51.458;7.046;2023-01-08T16:29:03;8.90;99.90
5796;DHT22;2924;51.458;7.046;2023-01-08T16:31:29;8.90;99.90
5796;DHT22;2924;51.458;7.046;2023-01-08T16:33:59;8.90;99.90
5796;DHT22;2924;51.458;7.046;2023-01-08T16:36:25;9.00;99.90
5796;DHT22;2924;51.458;7.046;2023-01-08T16:38:51;9.00;99.90
5796;DHT22;2924;51.458;7.046;2023-01-08T16:41:16;9.00;99.90
5796;DHT22;2924;51.458;7.046;2023-01-08T16:43:42;9.10;99.90
5796;DHT22;2924;51.458;7.046;2023-01-08T16:46:14;9.10;99.90
5796;DHT22;2924;51.458;7.046;2023-01-08T16:48:42;9.10;99.90
5796;DHT22;2924;51.458;7.046;2023-01-08T16:51:08;9.10;99.90
5796;DHT22;2924;51.458;7.046;2023-01-08T16:53:35;9.10;99.90
5796;DHT22;2924;51.458;7.046;2023-01-08T16:56:02;9.00;99.90
5796;DHT22;2924;51.458;7.046;2023-01-08T16:58:28;9.00;99.90
5796;DHT22;2924;51.458;7.046;2023-01-08T17:00:54;8.90;99.90
5796;DHT22;2924;51.458;7.046;2023-01-08T17:03:20;8.90;99.90
5796;DHT22;2924;51.458;7.046;2023-01-08T17:05:47;8.80;99.90
5796;DHT22;2924;51.458;7.046;2023-01-08T17:08:12;8.70;99.90
5796;DHT22;2924;51.458;7.046;2023-01-08T17:10:41;8.70;99.90
5796;DHT22;2924;51.458;7.046;2023-01-08T17:13:08;8.70;99.90
5796;DHT22;2924;51.458;7.046;2023-01-08T17:15:35;8.60;99.90
5796;DHT22;2924;51.458;7.046;2023-01-08T17:18:01;8.70;99.90
5796;DHT22;2924;51.458;7.046;2023-01-08T17:20:27;8.60;99.90
5796;DHT22;2924;51.458;7.046;2023-01-08T17:22:55;8.60;99.90
5796;DHT22;2924;51.458;7.046;2023-01-08T17:25:21;8.50;99.90
5796;DHT22;2924;51.458;7.046;2023-01-08T17:27:47;8.40;99.90
5796;DHT22;2924;51.458;7.046;2023-01-08T17:30:13;8.30;99.90
5796;DHT22;2924;51.458;7.046;2023-01-08T17:32:39;8.30;99.90
5796;DHT22;2924;51.458;7.046;2023-01-08T17:35:05;8.30;99.90
5796;DHT22;2924;51.458;7.046;2023-01-08T17:37:31;8.40;99.90
5796;DHT22;2924;51.458;7.046;2023-01-08T17:39:57;8.40;99.90
5796;DHT22;2924;51.458;7.046;2023-01-08T17:42:25;8.30;99.90
5796;DHT22;2924;51.458;7.046;2023-01-08T17:44:53;8.30;99.90
5796;DHT22;2924;51.458;7.046;2023-01-08T17:47:20;8.20;99.90
5796;DHT22;2924;51.458;7.046;2023-01-08T17:49:50;8.20;99.90
5796;DHT22;2924;51.458;7.046;2023-01-08T17:52:16;8.10;99.90
5796;DHT22;2924;51.458;7.046;2023-01-08T17:54:42;8.10;99.90
5796;DHT22;2924;51.458;7.046;2023-01-08T17:57:07;8.10;99.90
5796;DHT22;2924;51.458;7.046;2023-01-08T17:59:33;8.10;99.90
5796;DHT22;2924;51.458;7.046;2023-01-08T18:01:59;8.10;99.90
5796;DHT22;2924;51.458;7.046;2023-01-08T18:04:24;8.10;99.90
5796;DHT22;2924;51.458;7.046;2023-01-08T18:06:50;8.10;99.90
5796;DHT22;2924;51.458;7.046;2023-01-08T18:09:16;8.00;99.90
5796;DHT22;2924;51.458;7.046;2023-01-08T18:11:42;8.00;99.90
5796;DHT22;2924;51.458;7.046;2023-01-08T18:14:11;8.00;99.90